sensor_id;sensor_type;location;lat;lon;timestamp;pressure;altitude;pressure_sealevel;temperature;humidity
70544;BME280;58097;48.364;-1.224;2023-11-19T00:00:51;99690.53;;;14.25;100.00
70544;BME280;58097;48.364;-1.224;2023-11-19T00:03:17;99686.03;;;14.24;100.00
70544;BME280;58097;48.364;-1.224;2023-11-19T00:05:43;99687.28;;;14.21;100.00
70544;BME280;58097;48.364;-1.224;2023-11-19T00:08:08;99678.94;;;14.21;100.00
70544;BME280;58097;48.364;-1.224;2023-11-19T00:10:34;99685.75;;;14.19;100.00
70544;BME280;58097;48.364;-1.224;2023-11-19T00:12:59;99683.72;;;14.13;100.00
70544;BME280;58097;48.364;-1.224;2023-11-19T00:15:24;99683.53;;;14.14;100.00
70544;BME280;58097;48.364;-1.224;2023-11-19T00:17:50;99689.94;;;14.15;100.00
70544;BME280;58097;48.364;-1.224;2023-11-19T00:20:17;99693.78;;;14.14;100.00
70544;BME280;58097;48.364;-1.224;2023-11-19T00:22:43;99691.66;;;14.16;100.00
70544;BME280;58097;48.364;-1.224;2023-11-19T00:25:09;99706.81;;;14.13;100.00
70544;BME280;58097;48.364;-1.224;2023-11-19T00:27:35;99702.50;;;14.11;100.00
70544;BME280;58097;48.364;-1.224;2023-11-19T00:30:03;99687.53;;;14.12;100.00
70544;BME280;58097;48.364;-1.224;2023-11-19T00:32:30;99695.59;;;14.07;100.00
70544;BME280;58097;48.364;-1.224;2023-11-19T00:34:55;99698.56;;;14.05;100.00
70544;BME280;58097;48.364;-1.224;2023-11-19T00:37:21;99687.34;;;13.99;100.00
70544;BME280;58097;48.364;-1.224;2023-11-19T00:39:46;99691.19;;;13.98;100.00
70544;BME280;58097;48.364;-1.224;2023-11-19T00:42:11;99682.47;;;14.01;100.00
70544;BME280;58097;48.364;-1.224;2023-11-19T00:44:37;99685.25;;;14.01;100.00
70544;BME280;58097;48.364;-1.224;2023-11-19T00:47:02;99681.78;;;13.99;100.00
70544;BME280;58097;48.364;-1.224;2023-11-19T00:49:28;99684.94;;;13.95;100.00
70544;BME280;58097;48.364;-1.224;2023-11-19T00:51:53;99679.00;;;13.99;100.00
70544;BME280;58097;48.364;-1.224;2023-11-19T00:54:18;99678.34;;;13.97;100.00
70544;BME280;58097;48.364;-1.224;2023-11-19T00:56:44;99679.78;;;13.92;100.00
70544;BME280;58097;48.364;-1.224;2023-11-19T00:59:10;99691.25;;;13.89;100.00
70544;BME280;58097;48.364;-1.224;2023-11-19T01:01:35;99697.16;;;13.86;100.00
70544;BME280;58097;48.364;-1.224;2023-11-19T01:04:01;99688.84;;;13.86;100.00
70544;BME280;58097;48.364;-1.224;2023-11-19T01:06:27;99689.88;;;13.85;100.00
70544;BME280;58097;48.364;-1.224;2023-11-19T01:08:53;99688.84;;;13.86;100.00
70544;BME280;58097;48.364;-1.224;2023-11-19T01:11:21;99697.72;;;13.82;100.00
70544;BME280;58097;48.364;-1.224;2023-11-19T01:13:47;99687.19;;;13.77;100.00
70544;BME280;58097;48.364;-1.224;2023-11-19T01:16:12;99697.44;;;13.77;100.00
70544;BME280;58097;48.364;-1.224;2023-11-19T01:18:38;99701.06;;;13.77;100.00
70544;BME280;58097;48.364;-1.224;2023-11-19T01:21:04;99703.38;;;13.74;100.00
70544;BME280;58097;48.364;-1.224;2023-11-19T01:23:30;99718.13;;;13.74;100.00
70544;BME280;58097;48.364;-1.224;2023-11-19T01:25:55;99710.34;;;13.70;100.00
70544;BME280;58097;48.364;-1.224;2023-11-19T01:28:20;99714.38;;;13.67;100.00
70544;BME280;58097;48.364;-1.224;2023-11-19T01:30:46;99714.06;;;13.62;100.00
70544;BME280;58097;48.364;-1.224;2023-11-19T01:33:11;99709.19;;;13.64;100.00
70544;BME280;58097;48.364;-1.224;2023-11-19T01:35:36;99707.13;;;13.58;100.00
70544;BME280;58097;48.364;-1.224;2023-11-19T01:38:01;99705.78;;;13.54;100.00
70544;BME280;58097;48.364;-1.224;2023-11-19T01:40:27;99706.81;;;13.53;100.00
70544;BME280;58097;48.364;-1.224;2023-11-19T01:42:52;99703.94;;;13.46;100.00
70544;BME280;58097;48.364;-1.224;2023-11-19T01:45:27;99707.38;;;13.48;100.00
70544;BME280;58097;48.364;-1.224;2023-11-19T01:47:54;99714.16;;;13.46;100.00
70544;BME280;58097;48.364;-1.224;2023-11-19T01:50:21;99725.47;;;13.44;100.00
70544;BME280;58097;48.364;-1.224;2023-11-19T01:52:47;99722.69;;;13.44;100.00
70544;BME280;58097;48.364;-1.224;2023-11-19T01:55:13;99723.06;;;13.41;100.00
70544;BME280;58097;48.364;-1.224;2023-11-19T01:57:39;99726.03;;;13.40;100.00
70544;BME280;58097;48.364;-1.224;2023-11-19T02:00:07;99724.09;;;13.40;100.00
70544;BME280;58097;48.364;-1.224;2023-11-19T02:02:36;99726.03;;;13.40;100.00
70544;BME280;58097;48.364;-1.224;2023-11-19T02:05:02;99722.94;;;13.35;100.00
70544;BME280;58097;48.364;-1.224;2023-11-19T02:07:28;99721.69;;;13.37;100.00
70544;BME280;58097;48.364;-1.224;2023-11-19T02:09:53;99717.19;;;13.36;100.00
70544;BME280;58097;48.364;-1.224;2023-11-19T02:12:19;99725.22;;;13.31;100.00
70544;BME280;58097;48.364;-1.224;2023-11-19T02:14:45;99715.69;;;13.25;100.00
70544;BME280;58097;48.364;-1.224;2023-11-19T02:17:30;99706.69;;;13.23;100.00
70544;BME280;58097;48.364;-1.224;2023-11-19T02:20:00;99712.59;;;13.20;100.00
70544;BME280;58097;48.364;-1.224;2023-11-19T02:22:25;99713.66;;;13.19;100.00
70544;BME280;58097;48.364;-1.224;2023-11-19T02:24:55;99708.41;;;13.24;100.00
70544;BME280;58097;48.364;-1.224;2023-11-19T02:27:51;99706.19;;;13.20;100.00
70544;BME280;58097;48.364;-1.224;2023-11-19T02:30:20;99703.22;;;13.21;100.00
70544;BME280;58097;48.364;-1.224;2023-11-19T02:32:46;99703.94;;;13.15;100.00
70544;BME280;58097;48.364;-1.224;2023-11-19T02:35:12;99695.81;;;13.14;100.00
70544;BME280;58097;48.364;-1.224;2023-11-19T02:37:38;99708.63;;;13.15;100.00
70544;BME280;58097;48.364;-1.224;2023-11-19T02:40:04;99699.44;;;13.14;100.00
70544;BME280;58097;48.364;-1.224;2023-11-19T02:42:30;99697.41;;;13.08;100.00
70544;BME280;58097;48.364;-1.224;2023-11-19T02:44:56;99696.91;;;13.05;100.00
70544;BME280;58097;48.364;-1.224;2023-11-19T02:47:22;99698.47;;;12.99;100.00
70544;BME280;58097;48.364;-1.224;2023-11-19T02:49:49;99699.69;;;12.96;100.00
70544;BME280;58097;48.364;-1.224;2023-11-19T02:52:15;99693.28;;;12.96;100.00
70544;BME280;58097;48.364;-1.224;2023-11-19T02:54:42;99693.66;;;12.93;100.00
70544;BME280;58097;48.364;-1.224;2023-11-19T02:57:07;99696.13;;;12.88;100.00
70544;BME280;58097;48.364;-1.224;2023-11-19T02:59:38;99692.16;;;12.82;100.00
70544;BME280;58097;48.364;-1.224;2023-11-19T03:02:08;99690.31;;;12.75;100.00
70544;BME280;58097;48.364;-1.224;2023-11-19T03:04:41;99692.03;;;12.67;100.00
70544;BME280;58097;48.364;-1.224;2023-11-19T03:07:09;99688.59;;;12.65;100.00
70544;BME280;58097;48.364;-1.224;2023-11-19T03:09:34;99692.28;;;12.58;100.00
70544;BME280;58097;48.364;-1.224;2023-11-19T03:12:05;99692.81;;;12.53;100.00
70544;BME280;58097;48.364;-1.224;2023-11-19T03:14:33;99696.31;;;12.47;100.00
70544;BME280;58097;48.364;-1.224;2023-11-19T03:16:59;99698.72;;;12.42;100.00
70544;BME280;58097;48.364;-1.224;2023-11-19T03:19:25;99697.84;;;12.41;100.00
70544;BME280;58097;48.364;-1.224;2023-11-19T03:21:52;99692.13;;;12.43;100.00
70544;BME280;58097;48.364;-1.224;2023-11-19T03:24:17;99696.66;;;12.44;100.00
70544;BME280;58097;48.364;-1.224;2023-11-19T03:26:42;99696.13;;;12.40;100.00
70544;BME280;58097;48.364;-1.224;2023-11-19T03:29:08;99690.78;;;12.39;100.00
70544;BME280;58097;48.364;-1.224;2023-11-19T03:31:33;99688.00;;;12.39;100.00
70544;BME280;58097;48.364;-1.224;2023-11-19T03:33:58;99685.09;;;12.32;100.00
70544;BME280;58097;48.364;-1.224;2023-11-19T03:36:24;99683.34;;;12.31;100.00
70544;BME280;58097;48.364;-1.224;2023-11-19T03:38:49;99683.91;;;12.27;100.00
70544;BME280;58097;48.364;-1.224;2023-11-19T03:41:15;99681.13;;;12.27;100.00
70544;BME280;58097;48.364;-1.224;2023-11-19T03:43:41;99680.09;;;12.28;100.00
70544;BME280;58097;48.364;-1.224;2023-11-19T03:46:19;99681.13;;;12.27;100.00
70544;BME280;58097;48.364;-1.224;2023-11-19T03:48:49;99671.94;;;12.26;100.00
70544;BME280;58097;48.364;-1.224;2023-11-19T03:51:15;99678.72;;;12.24;100.00
70544;BME280;58097;48.364;-1.224;2023-11-19T03:53:44;99678.34;;;12.27;100.00
70544;BME280;58097;48.364;-1.224;2023-11-19T03:56:11;99677.13;;;12.29;100.00
70544;BME280;58097;48.364;-1.224;2023-11-19T03:58:37;99682.00;;;12.27;100.00
70544;BME280;58097;48.364;-1.224;2023-11-19T04:01:10;99682.00;;;12.27;100.00
70544;BME280;58097;48.364;-1.224;2023-11-19T04:03:35;99686.66;;;12.27;100.00
70544;BME280;58097;48.364;-1.224;2023-11-19T04:06:01;99683.53;;;12.30;100.00
70544;BME280;58097;48.364;-1.224;2023-11-19T04:08:27;99686.53;;;12.20;100.00
70544;BME280;58097;48.364;-1.224;2023-11-19T04:10:52;99684.06;;;12.25;100.00
70544;BME280;58097;48.364;-1.224;2023-11-19T04:13:18;99689.44;;;12.27;100.00
70544;BME280;58097;48.364;-1.224;2023-11-19T04:15:44;99687.72;;;12.26;100.00
70544;BME280;58097;48.364;-1.224;2023-11-19T04:18:10;99690.69;;;12.16;100.00
70544;BME280;58097;48.364;-1.224;2023-11-19T04:20:35;99689.47;;;12.19;100.00
70544;BME280;58097;48.364;-1.224;2023-11-19T04:23:01;99695.34;;;12.24;100.00
70544;BME280;58097;48.364;-1.224;2023-11-19T04:25:27;99696.56;;;12.21;100.00
70544;BME280;58097;48.364;-1.224;2023-11-19T04:27:52;99703.31;;;12.19;100.00
70544;BME280;58097;48.364;-1.224;2023-11-19T04:30:18;99702.28;;;12.20;100.00
70544;BME280;58097;48.364;-1.224;2023-11-19T04:32:44;99705.72;;;12.14;100.00
70544;BME280;58097;48.364;-1.224;2023-11-19T04:35:09;99702.28;;;12.12;100.00
70544;BME280;58097;48.364;-1.224;2023-11-19T04:37:35;99720.63;;;12.13;100.00
70544;BME280;58097;48.364;-1.224;2023-11-19T04:40:00;99721.84;;;12.10;100.00
70544;BME280;58097;48.364;-1.224;2023-11-19T04:42:26;99722.00;;;12.08;100.00
70544;BME280;58097;48.364;-1.224;2023-11-19T04:44:51;99721.16;;;12.08;100.00
70544;BME280;58097;48.364;-1.224;2023-11-19T04:47:17;99723.22;;;12.06;100.00
70544;BME280;58097;48.364;-1.224;2023-11-19T04:49:42;99723.91;;;12.08;100.00
70544;BME280;58097;48.364;-1.224;2023-11-19T04:52:08;99726.34;;;12.11;100.00
70544;BME280;58097;48.364;-1.224;2023-11-19T04:54:34;99727.38;;;12.10;100.00
70544;BME280;58097;48.364;-1.224;2023-11-19T04:56:59;99731.38;;;12.07;100.00
70544;BME280;58097;48.364;-1.224;2023-11-19T04:59:24;99730.84;;;12.04;100.00
70544;BME280;58097;48.364;-1.224;2023-11-19T05:01:50;99718.41;;;12.00;100.00
70544;BME280;58097;48.364;-1.224;2023-11-19T05:04:16;99719.81;;;11.96;100.00
70544;BME280;58097;48.364;-1.224;2023-11-19T05:06:41;99719.63;;;11.97;100.00
70544;BME280;58097;48.364;-1.224;2023-11-19T05:09:06;99720.47;;;11.98;100.00
70544;BME280;58097;48.364;-1.224;2023-11-19T05:11:35;99714.59;;;12.01;100.00
70544;BME280;58097;48.364;-1.224;2023-11-19T05:14:04;99721.34;;;11.98;100.00
70544;BME280;58097;48.364;-1.224;2023-11-19T05:16:29;99716.84;;;11.97;100.00
70544;BME280;58097;48.364;-1.224;2023-11-19T05:18:55;99732.78;;;11.95;100.00
70544;BME280;58097;48.364;-1.224;2023-11-19T05:21:20;99730.88;;;11.88;100.00
70544;BME280;58097;48.364;-1.224;2023-11-19T05:23:46;99724.13;;;11.82;100.00
70544;BME280;58097;48.364;-1.224;2023-11-19T05:26:22;99728.63;;;11.83;100.00
70544;BME280;58097;48.364;-1.224;2023-11-19T05:28:49;99726.88;;;11.82;100.00
70544;BME280;58097;48.364;-1.224;2023-11-19T05:31:16;99726.53;;;11.85;100.00
70544;BME280;58097;48.364;-1.224;2023-11-19T05:33:42;99735.56;;;11.87;100.00
70544;BME280;58097;48.364;-1.224;2023-11-19T05:36:07;99727.56;;;11.84;100.00
70544;BME280;58097;48.364;-1.224;2023-11-19T05:38:34;99731.94;;;11.87;100.00
70544;BME280;58097;48.364;-1.224;2023-11-19T05:40:59;99733.63;;;11.79;100.00
70544;BME280;58097;48.364;-1.224;2023-11-19T05:43:24;99726.69;;;11.75;100.00
70544;BME280;58097;48.364;-1.224;2023-11-19T05:45:50;99742.78;;;11.72;100.00
70544;BME280;58097;48.364;-1.224;2023-11-19T05:48:15;99733.63;;;11.71;100.00
70544;BME280;58097;48.364;-1.224;2023-11-19T05:50:41;99746.06;;;11.75;100.00
70544;BME280;58097;48.364;-1.224;2023-11-19T05:53:07;99750.56;;;11.76;100.00
70544;BME280;58097;48.364;-1.224;2023-11-19T05:55:35;99754.38;;;11.75;100.00
70544;BME280;58097;48.364;-1.224;2023-11-19T05:58:02;99748.53;;;11.78;100.00
70544;BME280;58097;48.364;-1.224;2023-11-19T06:00:29;99756.47;;;11.82;100.00
70544;BME280;58097;48.364;-1.224;2023-11-19T06:02:55;99753.22;;;11.86;100.00
70544;BME280;58097;48.364;-1.224;2023-11-19T06:05:21;99761.84;;;11.83;100.00
70544;BME280;58097;48.364;-1.224;2023-11-19T06:07:46;99743.50;;;11.82;100.00
70544;BME280;58097;48.364;-1.224;2023-11-19T06:10:11;99752.16;;;11.79;100.00
70544;BME280;58097;48.364;-1.224;2023-11-19T06:12:39;99751.97;;;11.81;100.00
70544;BME280;58097;48.364;-1.224;2023-11-19T06:15:06;99744.72;;;11.79;100.00
70544;BME280;58097;48.364;-1.224;2023-11-19T06:17:33;99744.53;;;11.81;100.00
70544;BME280;58097;48.364;-1.224;2023-11-19T06:20:19;99749.91;;;11.83;100.00
70544;BME280;58097;48.364;-1.224;2023-11-19T06:22:45;99746.97;;;11.84;100.00
70544;BME280;58097;48.364;-1.224;2023-11-19T06:25:11;99749.72;;;11.84;100.00
70544;BME280;58097;48.364;-1.224;2023-11-19T06:27:36;99747.97;;;11.75;100.00
70544;BME280;58097;48.364;-1.224;2023-11-19T06:30:01;99749.38;;;11.71;100.00
70544;BME280;58097;48.364;-1.224;2023-11-19T06:32:27;99744.50;;;11.73;100.00
70544;BME280;58097;48.364;-1.224;2023-11-19T06:34:53;99746.59;;;11.71;100.00
70544;BME280;58097;48.364;-1.224;2023-11-19T06:37:18;99742.09;;;11.70;100.00
70544;BME280;58097;48.364;-1.224;2023-11-19T06:39:44;99745.22;;;11.67;100.00
70544;BME280;58097;48.364;-1.224;2023-11-19T06:42:09;99736.22;;;11.65;100.00
70544;BME280;58097;48.364;-1.224;2023-11-19T06:44:35;99748.66;;;11.69;100.00
70544;BME280;58097;48.364;-1.224;2023-11-19T06:47:00;99741.06;;;11.63;100.00
70544;BME280;58097;48.364;-1.224;2023-11-19T06:49:26;99744.53;;;11.57;100.00
70544;BME280;58097;48.364;-1.224;2023-11-19T06:51:51;99739.47;;;11.52;100.00
70544;BME280;58097;48.364;-1.224;2023-11-19T06:54:16;99733.94;;;11.52;100.00
70544;BME280;58097;48.364;-1.224;2023-11-19T06:56:41;99743.63;;;11.48;100.00
70544;BME280;58097;48.364;-1.224;2023-11-19T06:59:07;99742.59;;;11.49;100.00
70544;BME280;58097;48.364;-1.224;2023-11-19T07:01:36;99750.38;;;11.54;100.00
70544;BME280;58097;48.364;-1.224;2023-11-19T07:04:02;99744.84;;;11.54;100.00
70544;BME280;58097;48.364;-1.224;2023-11-19T07:06:33;99745.00;;;11.52;100.00
70544;BME280;58097;48.364;-1.224;2023-11-19T07:09:00;99752.97;;;11.55;100.00
70544;BME280;58097;48.364;-1.224;2023-11-19T07:11:27;99750.88;;;11.49;100.00
70544;BME280;58097;48.364;-1.224;2023-11-19T07:13:53;99754.88;;;11.46;100.00
70544;BME280;58097;48.364;-1.224;2023-11-19T07:16:19;99763.50;;;11.43;100.00
70544;BME280;58097;48.364;-1.224;2023-11-19T07:18:46;99762.31;;;11.46;100.00
70544;BME280;58097;48.364;-1.224;2023-11-19T07:21:15;99764.72;;;11.41;100.00
70544;BME280;58097;48.364;-1.224;2023-11-19T07:23:40;99766.44;;;11.42;100.00
70544;BME280;58097;48.364;-1.224;2023-11-19T07:26:06;99763.69;;;11.42;100.00
70544;BME280;58097;48.364;-1.224;2023-11-19T07:28:35;99760.22;;;11.40;100.00
70544;BME280;58097;48.364;-1.224;2023-11-19T07:31:00;99758.16;;;11.42;100.00
70544;BME280;58097;48.364;-1.224;2023-11-19T07:33:25;99748.63;;;11.36;100.00
70544;BME280;58097;48.364;-1.224;2023-11-19T07:35:51;99753.13;;;11.29;100.00
70544;BME280;58097;48.364;-1.224;2023-11-19T07:38:16;99750.66;;;11.18;100.00
70544;BME280;58097;48.364;-1.224;2023-11-19T07:40:42;99747.03;;;11.09;100.00
70544;BME280;58097;48.364;-1.224;2023-11-19T07:43:07;99756.19;;;11.10;100.00
70544;BME280;58097;48.364;-1.224;2023-11-19T07:45:33;99751.00;;;11.07;100.00
70544;BME280;58097;48.364;-1.224;2023-11-19T07:47:59;99753.41;;;11.10;100.00
70544;BME280;58097;48.364;-1.224;2023-11-19T07:50:26;99753.41;;;11.10;100.00
70544;BME280;58097;48.364;-1.224;2023-11-19T07:52:51;99762.25;;;11.13;100.00
70544;BME280;58097;48.364;-1.224;2023-11-19T07:55:17;99766.38;;;11.17;100.00
70544;BME280;58097;48.364;-1.224;2023-11-19T07:57:42;99766.91;;;11.21;100.00
70544;BME280;58097;48.364;-1.224;2023-11-19T08:00:08;99753.78;;;11.23;100.00
70544;BME280;58097;48.364;-1.224;2023-11-19T08:02:37;99760.53;;;11.21;100.00
70544;BME280;58097;48.364;-1.224;2023-11-19T08:05:03;99763.09;;;11.14;100.00
70544;BME280;58097;48.364;-1.224;2023-11-19T08:07:28;99761.38;;;11.13;100.00
70544;BME280;58097;48.364;-1.224;2023-11-19T08:09:54;99758.94;;;11.10;100.00
70544;BME280;58097;48.364;-1.224;2023-11-19T08:12:19;99770.53;;;11.13;100.00
70544;BME280;58097;48.364;-1.224;2023-11-19T08:14:44;99770.19;;;11.16;100.00
70544;BME280;58097;48.364;-1.224;2023-11-19T08:17:10;99771.75;;;11.19;100.00
70544;BME280;58097;48.364;-1.224;2023-11-19T08:19:35;99770.03;;;11.26;100.00
70544;BME280;58097;48.364;-1.224;2023-11-19T08:22:01;99761.59;;;11.28;100.00
70544;BME280;58097;48.364;-1.224;2023-11-19T08:24:27;99780.78;;;11.29;100.00
70544;BME280;58097;48.364;-1.224;2023-11-19T08:26:53;99779.06;;;11.36;100.00
70544;BME280;58097;48.364;-1.224;2023-11-19T08:29:19;99782.00;;;11.35;100.00
70544;BME280;58097;48.364;-1.224;2023-11-19T08:31:44;99787.38;;;11.36;100.00
70544;BME280;58097;48.364;-1.224;2023-11-19T08:34:11;99788.56;;;11.34;100.00
70544;BME280;58097;48.364;-1.224;2023-11-19T08:36:36;99792.56;;;11.39;100.00
70544;BME280;58097;48.364;-1.224;2023-11-19T08:39:02;99798.28;;;11.46;100.00
70544;BME280;58097;48.364;-1.224;2023-11-19T08:41:28;99796.91;;;11.50;100.00
70544;BME280;58097;48.364;-1.224;2023-11-19T08:43:53;99809.19;;;11.56;100.00
70544;BME280;58097;48.364;-1.224;2023-11-19T08:46:19;99801.44;;;11.59;100.00
70544;BME280;58097;48.364;-1.224;2023-11-19T08:48:44;99806.44;;;11.64;100.00
70544;BME280;58097;48.364;-1.224;2023-11-19T08:51:11;99797.97;;;11.65;100.00
70544;BME280;58097;48.364;-1.224;2023-11-19T08:53:36;99801.97;;;11.63;100.00
70544;BME280;58097;48.364;-1.224;2023-11-19T08:56:02;99811.13;;;11.63;100.00
70544;BME280;58097;48.364;-1.224;2023-11-19T08:58:28;99812.34;;;11.69;100.00
70544;BME280;58097;48.364;-1.224;2023-11-19T09:00:53;99815.97;;;11.77;100.00
70544;BME280;58097;48.364;-1.224;2023-11-19T09:03:18;99823.78;;;11.82;100.00
70544;BME280;58097;48.364;-1.224;2023-11-19T09:05:45;99825.56;;;11.91;100.00
70544;BME280;58097;48.364;-1.224;2023-11-19T09:08:10;99822.44;;;11.94;100.00
70544;BME280;58097;48.364;-1.224;2023-11-19T09:10:37;99822.78;;;11.99;100.00
70544;BME280;58097;48.364;-1.224;2023-11-19T09:13:02;99820.88;;;12.00;100.00
70544;BME280;58097;48.364;-1.224;2023-11-19T09:15:29;99829.34;;;12.06;100.00
70544;BME280;58097;48.364;-1.224;2023-11-19T09:17:54;99824.69;;;12.07;100.00
70544;BME280;58097;48.364;-1.224;2023-11-19T09:20:19;99835.41;;;12.10;100.00
70544;BME280;58097;48.364;-1.224;2023-11-19T09:22:45;99836.47;;;12.17;100.00
70544;BME280;58097;48.364;-1.224;2023-11-19T09:25:11;99838.00;;;12.36;100.00
70544;BME280;58097;48.364;-1.224;2023-11-19T09:27:36;99848.06;;;12.45;100.00
70544;BME280;58097;48.364;-1.224;2023-11-19T09:30:02;99846.31;;;12.52;100.00
70544;BME280;58097;48.364;-1.224;2023-11-19T09:32:29;99853.91;;;12.58;100.00
70544;BME280;58097;48.364;-1.224;2023-11-19T09:34:54;99858.09;;;12.54;100.00
70544;BME280;58097;48.364;-1.224;2023-11-19T09:37:19;99851.00;;;12.52;100.00
70544;BME280;58097;48.364;-1.224;2023-11-19T09:39:45;99847.34;;;12.51;100.00
70544;BME280;58097;48.364;-1.224;2023-11-19T09:42:10;99847.69;;;12.56;100.00
70544;BME280;58097;48.364;-1.224;2023-11-19T09:44:37;99852.19;;;12.57;100.00
70544;BME280;58097;48.364;-1.224;2023-11-19T09:47:04;99839.69;;;12.61;100.00
70544;BME280;58097;48.364;-1.224;2023-11-19T09:49:30;99839.38;;;12.48;100.00
70544;BME280;58097;48.364;-1.224;2023-11-19T09:51:56;99840.25;;;12.49;100.00
70544;BME280;58097;48.364;-1.224;2023-11-19T09:54:21;99830.91;;;12.50;100.00
70544;BME280;58097;48.364;-1.224;2023-11-19T09:56:47;99837.47;;;12.49;100.00
70544;BME280;58097;48.364;-1.224;2023-11-19T09:59:13;99848.75;;;12.47;100.00
70544;BME280;58097;48.364;-1.224;2023-11-19T10:01:38;99839.75;;;12.45;100.00
70544;BME280;58097;48.364;-1.224;2023-11-19T10:04:06;99847.53;;;12.50;100.00
70544;BME280;58097;48.364;-1.224;2023-11-19T10:06:32;99843.72;;;12.51;100.00
70544;BME280;58097;48.364;-1.224;2023-11-19T10:08:57;99838.69;;;12.46;100.00
70544;BME280;58097;48.364;-1.224;2023-11-19T10:11:24;99841.81;;;12.51;100.00
70544;BME280;58097;48.364;-1.224;2023-11-19T10:13:51;99846.28;;;12.60;100.00
70544;BME280;58097;48.364;-1.224;2023-11-19T10:16:17;99839.53;;;12.63;100.00
70544;BME280;58097;48.364;-1.224;2023-11-19T10:18:45;99839.69;;;12.78;100.00
70544;BME280;58097;48.364;-1.224;2023-11-19T10:21:12;99841.72;;;12.92;100.00
70544;BME280;58097;48.364;-1.224;2023-11-19T10:23:52;99848.75;;;13.11;100.00
70544;BME280;58097;48.364;-1.224;2023-11-19T10:26:19;99846.53;;;13.06;100.00
70544;BME280;58097;48.364;-1.224;2023-11-19T10:28:48;99855.16;;;13.19;100.00
70544;BME280;58097;48.364;-1.224;2023-11-19T10:31:14;99847.34;;;13.31;100.00
70544;BME280;58097;48.364;-1.224;2023-11-19T10:33:40;99848.84;;;13.42;100.00
70544;BME280;58097;48.364;-1.224;2023-11-19T10:36:06;99849.78;;;13.57;100.00
70544;BME280;58097;48.364;-1.224;2023-11-19T10:38:32;99844.50;;;13.70;100.00
70544;BME280;58097;48.364;-1.224;2023-11-19T10:40:57;99842.53;;;13.79;100.00
70544;BME280;58097;48.364;-1.224;2023-11-19T10:43:24;99836.75;;;13.88;100.00
70544;BME280;58097;48.364;-1.224;2023-11-19T10:45:50;99831.81;;;13.99;100.00
70544;BME280;58097;48.364;-1.224;2023-11-19T10:48:16;99825.63;;;14.11;100.00
70544;BME280;58097;48.364;-1.224;2023-11-19T10:50:43;99835.56;;;14.06;100.00
70544;BME280;58097;48.364;-1.224;2023-11-19T10:53:11;99818.09;;;13.97;100.00
70544;BME280;58097;48.364;-1.224;2023-11-19T10:55:41;99826.06;;;14.00;100.00
70544;BME280;58097;48.364;-1.224;2023-11-19T10:58:09;99832.88;;;13.98;100.00
70544;BME280;58097;48.364;-1.224;2023-11-19T11:03:19;99825.59;;;13.97;100.00
70544;BME280;58097;48.364;-1.224;2023-11-19T11:05:49;99826.75;;;14.02;100.00
70544;BME280;58097;48.364;-1.224;2023-11-19T11:08:15;99814.97;;;14.00;100.00
70544;BME280;58097;48.364;-1.224;2023-11-19T11:10:59;99817.94;;;13.99;100.00
70544;BME280;58097;48.364;-1.224;2023-11-19T11:13:26;99815.72;;;13.94;100.00
70544;BME280;58097;48.364;-1.224;2023-11-19T11:15:56;99816.19;;;13.98;100.00
70544;BME280;58097;48.364;-1.224;2023-11-19T11:18:25;99805.94;;;13.98;100.00
70544;BME280;58097;48.364;-1.224;2023-11-19T11:20:58;99797.44;;;14.00;100.00
70544;BME280;58097;48.364;-1.224;2023-11-19T11:29:28;99790.50;;;13.95;100.00
70544;BME280;58097;48.364;-1.224;2023-11-19T11:37:39;99795.69;;;13.99;100.00
70544;BME280;58097;48.364;-1.224;2023-11-19T11:40:14;99795.50;;;14.00;100.00
70544;BME280;58097;48.364;-1.224;2023-11-19T11:42:41;99806.06;;;14.05;100.00
70544;BME280;58097;48.364;-1.224;2023-11-19T11:45:11;99799.25;;;14.07;100.00
70544;BME280;58097;48.364;-1.224;2023-11-19T11:50:13;99814.31;;;14.13;100.00
70544;BME280;58097;48.364;-1.224;2023-11-19T11:55:34;99800.69;;;14.26;100.00
70544;BME280;58097;48.364;-1.224;2023-11-19T11:58:01;99800.97;;;14.31;100.00
70544;BME280;58097;48.364;-1.224;2023-11-19T12:00:30;99794.53;;;14.31;100.00
70544;BME280;58097;48.364;-1.224;2023-11-19T12:02:59;99804.03;;;14.36;100.00
70544;BME280;58097;48.364;-1.224;2023-11-19T12:05:25;99795.22;;;14.33;100.00
70544;BME280;58097;48.364;-1.224;2023-11-19T12:08:01;99792.44;;;14.33;100.00
70544;BME280;58097;48.364;-1.224;2023-11-19T12:10:38;99791.09;;;14.29;100.00
70544;BME280;58097;48.364;-1.224;2023-11-19T12:13:09;99794.44;;;14.24;100.00
70544;BME280;58097;48.364;-1.224;2023-11-19T12:18:23;99797.59;;;14.21;100.00
70544;BME280;58097;48.364;-1.224;2023-11-19T12:20:49;99797.28;;;14.16;100.00
70544;BME280;58097;48.364;-1.224;2023-11-19T12:23:14;99790.50;;;14.18;100.00
70544;BME280;58097;48.364;-1.224;2023-11-19T12:25:40;99794.34;;;14.17;99.50
70544;BME280;58097;48.364;-1.224;2023-11-19T12:28:11;99785.44;;;14.22;100.00
70544;BME280;58097;48.364;-1.224;2023-11-19T12:30:38;99781.59;;;14.23;98.97
70544;BME280;58097;48.364;-1.224;2023-11-19T12:33:08;99783.50;;;14.22;98.05
70544;BME280;58097;48.364;-1.224;2023-11-19T12:35:41;99788.31;;;14.29;100.00
70544;BME280;58097;48.364;-1.224;2023-11-19T12:38:07;99784.09;;;14.33;98.93
70544;BME280;58097;48.364;-1.224;2023-11-19T12:40:33;99780.16;;;14.27;96.73
70544;BME280;58097;48.364;-1.224;2023-11-19T12:42:58;99767.69;;;14.23;96.47
70544;BME280;58097;48.364;-1.224;2023-11-19T12:45:34;99782.06;;;14.26;98.14
70544;BME280;58097;48.364;-1.224;2023-11-19T12:48:07;99774.78;;;14.25;95.79
70544;BME280;58097;48.364;-1.224;2023-11-19T12:50:52;99766.19;;;14.35;96.18
70544;BME280;58097;48.364;-1.224;2023-11-19T12:53:21;99770.97;;;14.41;95.75
70544;BME280;58097;48.364;-1.224;2023-11-19T12:55:47;99776.69;;;14.48;94.87
70544;BME280;58097;48.364;-1.224;2023-11-19T12:58:32;99771.53;;;14.60;95.19
70544;BME280;58097;48.364;-1.224;2023-11-19T13:03:30;99767.09;;;14.65;95.81